Map

Track Data

SID SEASON NUMBER BASIN SUBBASIN NAME ISO_TIME NATURE LAT LON WMO_WIND WMO_PRES WMO_AGENCY TRACK_TYPE DIST2LAND LANDFALL IFLAG USA_AGENCY USA_ATCF_ID USA_LAT USA_LON USA_RECORD USA_STATUS USA_WIND USA_PRES USA_SSHS USA_R34_NE USA_R34_SE USA_R34_SW USA_R34_NW USA_R50_NE USA_R50_SE USA_R50_SW USA_R50_NW USA_R64_NE USA_R64_SE USA_R64_SW USA_R64_NW USA_POCI USA_ROCI USA_RMW USA_EYE TOKYO_LAT TOKYO_LON TOKYO_GRADE TOKYO_WIND TOKYO_PRES TOKYO_R50_DIR TOKYO_R50_LONG TOKYO_R50_SHORT TOKYO_R30_DIR TOKYO_R30_LONG TOKYO_R30_SHORT TOKYO_LAND CMA_LAT CMA_LON CMA_CAT CMA_WIND CMA_PRES HKO_LAT HKO_LON HKO_CAT HKO_WIND HKO_PRES NEWDELHI_LAT NEWDELHI_LON NEWDELHI_GRADE NEWDELHI_WIND NEWDELHI_PRES NEWDELHI_CI NEWDELHI_DP NEWDELHI_POCI REUNION_LAT REUNION_LON REUNION_TYPE REUNION_WIND REUNION_PRES REUNION_TNUM REUNION_CI REUNION_RMW REUNION_R34_NE REUNION_R34_SE REUNION_R34_SW REUNION_R34_NW REUNION_R50_NE REUNION_R50_SE REUNION_R50_SW REUNION_R50_NW REUNION_R64_NE REUNION_R64_SE REUNION_R64_SW REUNION_R64_NW BOM_LAT BOM_LON BOM_TYPE BOM_WIND BOM_PRES BOM_TNUM BOM_CI BOM_RMW BOM_R34_NE BOM_R34_SE BOM_R34_SW BOM_R34_NW BOM_R50_NE BOM_R50_SE BOM_R50_SW BOM_R50_NW BOM_R64_NE BOM_R64_SE BOM_R64_SW BOM_R64_NW BOM_ROCI BOM_POCI BOM_EYE BOM_POS_METHOD BOM_PRES_METHOD NADI_LAT NADI_LON NADI_CAT NADI_WIND NADI_PRES WELLINGTON_LAT WELLINGTON_LON WELLINGTON_WIND WELLINGTON_PRES DS824_LAT DS824_LON DS824_STAGE DS824_WIND DS824_PRES TD9636_LAT TD9636_LON TD9636_STAGE TD9636_WIND TD9636_PRES TD9635_LAT TD9635_LON TD9635_WIND TD9635_PRES TD9635_ROCI NEUMANN_LAT NEUMANN_LON NEUMANN_CLASS NEUMANN_WIND NEUMANN_PRES MLC_LAT MLC_LON MLC_CLASS MLC_WIND MLC_PRES USA_GUST BOM_GUST BOM_GUST_PER REUNION_GUST REUNION_GUST_PER USA_SEAHGT USA_SEARAD_NE USA_SEARAD_SE USA_SEARAD_SW USA_SEARAD_NW STORM_SPEED STORM_DIR
1939010S12090 1939 3 SI WA NOT_NAMED 1939-01-10 00:00:00 TS -12.3000 90.0000 main 1540 1533 _________O____ -1 -12.3000 90.0000 TC 25 2 118
1939010S12090 1939 3 SI WA NOT_NAMED 1939-01-10 03:00:00 TS -12.3525 90.1025 main 1542 1535 _________P____ -1 -12.3525 90.1025 TC 25 2 117
1939010S12090 1939 3 SI WA NOT_NAMED 1939-01-10 06:00:00 TS -12.4000 90.2000 main 1535 1528 _________O____ -1 -12.4000 90.2000 TC 25 2 118
1939010S12090 1939 3 SI WA NOT_NAMED 1939-01-10 09:00:00 TS -12.4425 90.2800 main 1528 1528 _________P____ -1 -12.4425 90.2800 TC 25 1 137
1939010S12090 1939 3 SI WA NOT_NAMED 1939-01-10 12:00:00 TS -12.5000 90.3000 main 1537 1537 _________O____ -1 -12.5000 90.3000 TC 25 2 199
1939010S12090 1939 3 SI WA NOT_NAMED 1939-01-10 15:00:00 TS -12.5925 90.2300 main 1552 1552 _________P____ -1 -12.5925 90.2300 TC 25 3 224
1939010S12090 1939 3 SI WA NOT_NAMED 1939-01-10 18:00:00 TS -12.7000 90.1000 main 1568 1568 _________O____ -1 -12.7000 90.1000 TC 25 3 231
1939010S12090 1939 3 SI MM NOT_NAMED 1939-01-10 21:00:00 TS -12.8075 89.9575 main 1583 1583 _________P____ -1 -12.8075 89.9575 TC 25 4 236
1939010S12090 1939 3 SI MM NOT_NAMED 1939-01-11 00:00:00 TS -12.9000 89.8000 main 1606 1606 _________O____ -1 -12.9000 89.8000 TC 25 3 245
1939010S12090 1939 3 SI MM NOT_NAMED 1939-01-11 03:00:00 TS -12.9500 89.6500 main 1620 1620 _________P____ -1 -12.9500 89.6500 TC 25 3 251
1939010S12090 1939 3 SI MM NOT_NAMED 1939-01-11 06:00:00 TS -13.0000 89.5000 main 1635 1635 _________O____ -1 -13.0000 89.5000 TC 25 3 244
1939010S12090 1939 3 SI MM NOT_NAMED 1939-01-11 09:00:00 TS -13.0849 89.3724 main 1651 1651 _________P____ -1 -13.0849 89.3724 TC 25 4 236
1939010S12090 1939 3 SI MM NOT_NAMED 1939-01-11 12:00:00 TS -13.2000 89.2000 main 1673 1673 _________O____ -1 -13.2000 89.2000 TC 25 5 240
1939010S12090 1939 3 SI MM NOT_NAMED 1939-01-11 15:00:00 TS -13.3425 88.9225 main 1703 1703 _________P____ -1 -13.3425 88.9225 TC 25 7 243
1939010S12090 1939 3 SI MM NOT_NAMED 1939-01-11 18:00:00 TS -13.5000 88.6000 main 1741 1741 _________O____ -1 -13.5000 88.6000 TC 25 7 243
1939010S12090 1939 3 SI MM NOT_NAMED 1939-01-11 21:00:00 TS -13.6575 88.2775 main 1780 1780 _________P____ -1 -13.6575 88.2775 TC 25 7 243
1939010S12090 1939 3 SI MM NOT_NAMED 1939-01-12 00:00:00 TS -13.8000 88.0000 main 1810 1810 _________O____ -1 -13.8000 88.0000 TC 25 5 241
1939010S12090 1939 3 SI MM NOT_NAMED 1939-01-12 03:00:00 TS -13.8999 87.8199 main 1832 1832 _________P____ -1 -13.8999 87.8199 TC 25 4 236
1939010S12090 1939 3 SI MM NOT_NAMED 1939-01-12 06:00:00 TS -14.0000 87.7000 main 1848 1848 _________O____ -1 -14.0000 87.7000 TC 25 3 219
1939010S12090 1939 3 SI MM NOT_NAMED 1939-01-12 09:00:00 TS -14.1424 87.6149 main 1864 1864 _________P____ -1 -14.1424 87.6149 TC 25 4 213
1939010S12090 1939 3 SI MM NOT_NAMED 1939-01-12 12:00:00 TS -14.3000 87.5000 main 1887 1887 _________O____ -1 -14.3000 87.5000 TC 25 5 228
1939010S12090 1939 3 SI MM NOT_NAMED 1939-01-12 15:00:00 TS -14.4501 87.2650 main 1918 1918 _________P____ -1 -14.4501 87.2650 TC 25 6 238
1939010S12090 1939 3 SI MM NOT_NAMED 1939-01-12 18:00:00 TS -14.6000 87.0000 main 1949 1949 _________O____ -1 -14.6000 87.0000 TC 25 6 238
1939010S12090 1939 3 SI MM NOT_NAMED 1939-01-12 21:00:00 TS -14.7425 86.7850 main 1972 1972 _________P____ -1 -14.7425 86.7850 TC 25 5 232
1939010S12090 1939 3 SI MM NOT_NAMED 1939-01-13 00:00:00 TS -14.9000 86.6000 main 2003 2003 _________O____ -1 -14.9000 86.6000 TC 25 5 224
1939010S12090 1939 3 SI MM NOT_NAMED 1939-01-13 03:00:00 TS -15.0850 86.4425 main 2034 2034 _________P____ -1 -15.0850 86.4425 TC 25 5 216
1939010S12090 1939 3 SI MM NOT_NAMED 1939-01-13 06:00:00 TS -15.3000 86.3000 main 2057 2057 _________O____ -1 -15.3000 86.3000 TC 25 6 212
1939010S12090 1939 3 SI MM NOT_NAMED 1939-01-13 09:00:00 TS -15.5500 86.1425 main 2088 2096 _________P____ -1 -15.5500 86.1425 TC 25 6 210
1939010S12090 1939 3 SI MM NOT_NAMED 1939-01-13 12:00:00 TS -15.8000 86.0000 main 2120 2120 _________O____ -1 -15.8000 86.0000 TC 25 5 208
1939010S12090 1939 3 SI MM NOT_NAMED 1939-01-13 15:00:00 TS -16.0000 85.8924 main 2144 2144 _________P____ -1 -16.0000 85.8924 TC 25 4 206
1939010S12090 1939 3 SI MM NOT_NAMED 1939-01-13 18:00:00 TS -16.2000 85.8000 main 2167 2167 _________O____ -1 -16.2000 85.8000 TC 25 5 203
1939010S12090 1939 3 SI MM NOT_NAMED 1939-01-13 21:00:00 TS -16.4350 85.7000 main 2191 2191 _________P____ -1 -16.4350 85.7000 TC 25 5 201
1939010S12090 1939 3 SI MM NOT_NAMED 1939-01-14 00:00:00 TS -16.7000 85.6000 main 2223 2223 _________O____ -1 -16.7000 85.6000 TC 25 6 199
1939010S12090 1939 3 SI MM NOT_NAMED 1939-01-14 03:00:00 TS -16.9850 85.5000 main 2255 2255 _________P____ -1 -16.9850 85.5000 TC 25 6 198
1939010S12090 1939 3 SI MM NOT_NAMED 1939-01-14 06:00:00 TS -17.3000 85.4000 main 2287 2287 _________O____ -1 -17.3000 85.4000 TC 25 7 196
1939010S12090 1939 3 SI MM NOT_NAMED 1939-01-14 09:00:00 TS -17.6575 85.2925 main 2328 2328 _________P____ -1 -17.6575 85.2925 TC 25 7 195
1939010S12090 1939 3 SI MM NOT_NAMED 1939-01-14 12:00:00 TS -18.0000 85.2000 main 2360 2360 _________O____ -1 -18.0000 85.2000 TC 25 6 193
1939010S12090 1939 3 SI MM NOT_NAMED 1939-01-14 15:00:00 TS -18.2650 85.1424 main 2392 2392 _________P____ -1 -18.2650 85.1424 TC 25 5 191
1939010S12090 1939 3 SI MM NOT_NAMED 1939-01-14 18:00:00 TS -18.5000 85.1000 main 2409 2409 _________O____ -1 -18.5000 85.1000 TC 25 5 191
1939010S12090 1939 3 SI MM NOT_NAMED 1939-01-14 21:00:00 TS -18.7500 85.0425 main 2433 2442 _________P____ -1 -18.7500 85.0425 TC 25 5 191
1939010S12090 1939 3 SI MM NOT_NAMED 1939-01-15 00:00:00 TS -19.0000 85.0000 main 2459 2459 _________O____ -1 -19.0000 85.0000 TC 25 5 185
1939010S12090 1939 3 SI MM NOT_NAMED 1939-01-15 03:00:00 TS -19.2500 84.9925 main 2476 2476 _________P____ -1 -19.2500 84.9925 TC 25 5 178
1939010S12090 1939 3 SI MM NOT_NAMED 1939-01-15 06:00:00 TS -19.5000 85.0000 main 2502 2502 _________O____ -1 -19.5000 85.0000 TC 25 5 178
1939010S12090 1939 3 SI MM NOT_NAMED 1939-01-15 09:00:00 TS -19.7500 85.0000 main 2520 2520 _________P____ -1 -19.7500 85.0000 TC 25 5 178
1939010S12090 1939 3 SI MM NOT_NAMED 1939-01-15 12:00:00 TS -20.0000 85.0000 main 2546 2546 _________O____ -1 -20.0000 85.0000 TC 25 5 183
1939010S12090 1939 3 SI MM NOT_NAMED 1939-01-15 15:00:00 TS -20.2575 84.9925 main 2572 2572 _________P____ -1 -20.2575 84.9925 TC 25 5 178
1939010S12090 1939 3 SI MM NOT_NAMED 1939-01-15 18:00:00 TS -20.5000 85.0000 main 2590 2590 _________O____ -1 -20.5000 85.0000 TC 25 4 172
1939010S12090 1939 3 SI MM NOT_NAMED 1939-01-15 21:00:00 TS -20.6925 85.0500 main 2608 2602 _________P____ -1 -20.6925 85.0500 TC 25 4 167
1939010S12090 1939 3 SI MM NOT_NAMED 1939-01-16 00:00:00 TS -20.9000 85.1000 main 2620 2620 _________O____ -1 -20.9000 85.1000 TC 25 5 175
1939010S12090 1939 3 SI MM NOT_NAMED 1939-01-16 03:00:00 TS -21.1925 85.1001 main 2647 2647 _________P____ -1 -21.1925 85.1001 TC 25 6 179
1939010S12090 1939 3 SI MM NOT_NAMED 1939-01-16 06:00:00 TS -21.5000 85.1000 main 2674 2674 _________O____ -1 -21.5000 85.1000 TC 25 6 175
1939010S12090 1939 3 SI MM NOT_NAMED 1939-01-16 09:00:00 TS -21.7500 85.1425 main 2692 2695 _________P____ -1 -21.7500 85.1425 TC 25 5 169
1939010S12090 1939 3 SI MM NOT_NAMED 1939-01-16 12:00:00 TS -22.0000 85.2000 main 2713 2713 _________O____ -1 -22.0000 85.2000 TC 25 6 170
1939010S12090 1939 3 SI MM NOT_NAMED 1939-01-16 15:00:00 TS -22.2925 85.2426 main 2741 2735 _________P____ -1 -22.2925 85.2426 TC 25 6 172
1939010S12090 1939 3 SI MM NOT_NAMED 1939-01-16 18:00:00 TS -22.6000 85.3000 main 2763 2763 _________O____ -1 -22.6000 85.3000 TC 25 6 167
1939010S12090 1939 3 SI MM NOT_NAMED 1939-01-16 21:00:00 TS -22.9025 85.3899 main 2782 2782 _________P____ -1 -22.9025 85.3899 TC 25 6 163
1939010S12090 1939 3 SI MM NOT_NAMED 1939-01-17 00:00:00 TS -23.2000 85.5000 main 2794 _________O____ -1 -23.2000 85.5000 TC 25 6 160

About IBTrACS Database

This database is a web-friendly format of International Best Track Archive for Climate Stewardship (IBTrACS), a global best track data archive curated by NOAA dating back to 1842.

Updated: 2021-12-03